createdAt,value
2022-10-22T00:01:38.957Z,96125.03
2022-10-22T00:04:07.173Z,96130.31
2022-10-22T00:06:35.442Z,96137.09
2022-10-22T00:09:03.466Z,96128.50
2022-10-22T00:11:32.885Z,96122.25
2022-10-22T00:14:00.833Z,96127.75
2022-10-22T00:16:28.940Z,96132.97
2022-10-22T00:18:56.814Z,96131.69
2022-10-22T00:21:25.720Z,96142.34
2022-10-22T00:23:53.633Z,96138.13
2022-10-22T00:26:21.622Z,96147.13
2022-10-22T00:28:50.892Z,96139.78
2022-10-22T00:31:20.136Z,96137.13
2022-10-22T00:33:48.438Z,96140.09
2022-10-22T00:36:16.870Z,96133.03
2022-10-22T00:38:44.758Z,96134.78
2022-10-22T00:41:13.019Z,96126.56
2022-10-22T00:44:00.542Z,96103.56
2022-10-22T00:46:28.921Z,96122.09
2022-10-22T00:48:58.527Z,96112.94
2022-10-22T00:51:29.516Z,96109.09
2022-10-22T00:54:00.974Z,96097.84
2022-10-22T00:56:29.026Z,96097.84
2022-10-22T00:58:59.479Z,96095.72
2022-10-22T01:01:29.116Z,96102.53
2022-10-22T01:03:57.505Z,96109.06
2022-10-22T01:06:26.720Z,96103.06
2022-10-22T01:09:03.480Z,96098.03
2022-10-22T01:11:38.744Z,96091.13
2022-10-22T01:14:15.753Z,96084.81
2022-10-22T01:16:49.117Z,96086.97
2022-10-22T01:19:30.943Z,96097.44
2022-10-22T01:22:01.740Z,96101.06
2022-10-22T01:24:36.882Z,96093.25
2022-10-22T01:27:13.015Z,96090.38
2022-10-22T01:29:45.154Z,96080.44
2022-10-22T01:32:15.698Z,96054.63
2022-10-22T01:34:46.961Z,96072.03
2022-10-22T01:37:15.959Z,96071.44
2022-10-22T01:39:45.142Z,96063.44
2022-10-22T01:42:13.380Z,96064.63
2022-10-22T01:44:42.861Z,96066.56
2022-10-22T01:47:18.591Z,96067.28
2022-10-22T01:50:14.247Z,96059.28
2022-10-22T01:52:54.802Z,96065.28
2022-10-22T01:55:28.499Z,96064.72
2022-10-22T01:58:04.919Z,96059.19
2022-10-22T02:00:37.834Z,96058.16
2022-10-22T02:03:10.410Z,96044.50
2022-10-22T02:05:41.837Z,96043.81
2022-10-22T02:08:12.276Z,96043.53
2022-10-22T02:10:42.545Z,96030.47
2022-10-22T02:13:14.248Z,96025.97
2022-10-22T02:15:45.377Z,96026.28
2022-10-22T02:18:13.294Z,96019.97
2022-10-22T02:20:42.852Z,96025.59
2022-10-22T02:23:11.465Z,96013.50
2022-10-22T02:25:42.785Z,96029.94
2022-10-22T02:28:14.637Z,96029.41
2022-10-22T02:30:46.460Z,96037.91
2022-10-22T02:33:16.769Z,96040.34
2022-10-22T02:35:45.027Z,96038.91
2022-10-22T02:38:14.469Z,96047.09
2022-10-22T02:40:42.742Z,96040.97
2022-10-22T02:43:10.634Z,96045.53
2022-10-22T02:45:38.943Z,96056.44
2022-10-22T02:48:08.860Z,96045.09
2022-10-22T02:50:36.829Z,96048.97
2022-10-22T02:53:04.749Z,96046.41
2022-10-22T02:55:32.654Z,96033.38
2022-10-22T02:58:00.526Z,96018.78
2022-10-22T03:00:28.856Z,96011.72
2022-10-22T03:02:56.805Z,96015.59
2022-10-22T03:05:26.012Z,96020.84
2022-10-22T03:07:53.909Z,96014.00
2022-10-22T03:10:21.762Z,96017.66
2022-10-22T03:12:49.630Z,96010.22
2022-10-22T03:15:17.561Z,96011.91
2022-10-22T03:17:45.525Z,96013.94
2022-10-22T03:20:13.417Z,96019.22
2022-10-22T03:22:44.095Z,96021.66
2022-10-22T03:25:14.879Z,96026.34
2022-10-22T03:27:43.455Z,96030.03
2022-10-22T03:30:12.318Z,96045.91
2022-10-22T03:32:40.223Z,96033.00
2022-10-22T03:35:08.737Z,96034.84
2022-10-22T03:37:37.786Z,96044.66
2022-10-22T03:40:09.190Z,96045.91
2022-10-22T03:42:37.094Z,96050.44
2022-10-22T03:45:05.785Z,96051.81
2022-10-22T03:47:33.686Z,96056.34
2022-10-22T03:50:01.641Z,96061.72
2022-10-22T03:52:29.545Z,96058.91
2022-10-22T03:54:57.754Z,96046.75
2022-10-22T03:57:27.009Z,96049.28
2022-10-22T03:59:54.919Z,96053.66
2022-10-22T04:02:22.797Z,96065.94
2022-10-22T04:04:50.745Z,96068.75
2022-10-22T04:07:18.620Z,96072.94
2022-10-22T04:09:46.525Z,96077.81
2022-10-22T04:12:14.413Z,96078.22
2022-10-22T04:14:43.686Z,96081.75
2022-10-22T04:17:11.574Z,96079.22
2022-10-22T04:19:39.577Z,96079.34
2022-10-22T04:22:07.443Z,96066.97
2022-10-22T04:24:35.357Z,96060.56
2022-10-22T04:27:03.238Z,96069.38
2022-10-22T04:29:31.160Z,96087.50
2022-10-22T04:32:00.408Z,96085.47
2022-10-22T04:34:29.617Z,96083.03
2022-10-22T04:36:57.663Z,96084.19
2022-10-22T04:39:25.563Z,96070.69
2022-10-22T04:41:53.752Z,96060.00
2022-10-22T04:44:21.695Z,96045.78
2022-10-22T04:46:49.932Z,96063.88
2022-10-22T04:49:19.831Z,96067.25
2022-10-22T04:51:47.820Z,96064.34
2022-10-22T04:54:15.734Z,96053.88
2022-10-22T04:56:43.637Z,96077.31
2022-10-22T04:59:13.368Z,96077.97
2022-10-22T05:01:43.405Z,96079.75
2022-10-22T05:04:13.323Z,96086.31
2022-10-22T05:06:42.748Z,96079.81
2022-10-22T05:09:13.719Z,96074.50
2022-10-22T05:11:45.468Z,96069.03
2022-10-22T05:14:14.285Z,96058.47
2022-10-22T05:16:42.240Z,96058.50
2022-10-22T05:19:12.988Z,96090.31
2022-10-22T05:21:43.714Z,96097.69
2022-10-22T05:24:11.622Z,96106.75
2022-10-22T05:26:39.550Z,96116.25
2022-10-22T05:29:07.817Z,96132.94
2022-10-22T05:31:35.946Z,96128.50
2022-10-22T05:34:03.899Z,96134.13
2022-10-22T05:36:31.829Z,96136.56
2022-10-22T05:39:01.499Z,96149.06
2022-10-22T05:41:36.721Z,96143.22
2022-10-22T05:44:05.443Z,96147.78
2022-10-22T05:46:36.272Z,96155.97
2022-10-22T05:49:05.912Z,96152.97
2022-10-22T05:51:35.936Z,96166.34
2022-10-22T05:54:06.564Z,96175.78
2022-10-22T05:56:35.424Z,96170.16
2022-10-22T06:01:36.447Z,96178.13
2022-10-22T06:04:06.740Z,96186.25
2022-10-22T06:06:36.210Z,96184.78
2022-10-22T06:09:07.476Z,96189.38
2022-10-22T06:11:35.542Z,96205.72
2022-10-22T06:14:03.513Z,96213.19
2022-10-22T06:16:31.498Z,96204.84
2022-10-22T06:19:00.757Z,96212.81
2022-10-22T06:21:28.879Z,96231.03
2022-10-22T06:23:57.696Z,96241.22
2022-10-22T06:26:27.294Z,96244.78
2022-10-22T06:28:56.738Z,96253.44
2022-10-22T06:31:24.921Z,96251.34
2022-10-22T06:33:53.213Z,96251.25
2022-10-22T06:36:22.372Z,96258.06
2022-10-22T06:38:52.809Z,96263.16
2022-10-22T06:41:23.065Z,96250.22
2022-10-22T06:43:55.708Z,96268.25
2022-10-22T06:46:24.033Z,96275.19
2022-10-22T06:48:53.262Z,96254.91
2022-10-22T06:51:22.155Z,96276.16
2022-10-22T06:53:50.270Z,96282.31
2022-10-22T06:56:19.739Z,96299.81
2022-10-22T06:58:48.399Z,96294.66
2022-10-22T07:01:19.625Z,96309.19
2022-10-22T07:03:47.638Z,96305.34
2022-10-22T07:06:16.239Z,96309.63
2022-10-22T07:08:44.481Z,96300.72
2022-10-22T07:11:13.897Z,96292.50
2022-10-22T07:13:42.217Z,96289.59
2022-10-22T07:16:10.633Z,96294.84
2022-10-22T07:18:40.653Z,96291.59
2022-10-22T07:21:09.586Z,96291.41
2022-10-22T07:23:37.621Z,96292.13
2022-10-22T07:26:07.370Z,96287.50
2022-10-22T07:28:36.523Z,96307.16
2022-10-22T07:31:04.578Z,96308.34
2022-10-22T07:33:32.532Z,96317.59
2022-10-22T07:36:02.980Z,96324.34
2022-10-22T07:38:31.602Z,96330.09
2022-10-22T07:40:59.978Z,96324.19
2022-10-22T07:43:28.222Z,96322.81
2022-10-22T07:45:56.746Z,96337.78
2022-10-22T07:48:25.108Z,96348.06
2022-10-22T07:50:53.306Z,96345.34
2022-10-22T07:53:22.585Z,96352.63
2022-10-22T07:55:50.557Z,96342.53
2022-10-22T07:58:18.781Z,96341.97
2022-10-22T08:00:46.752Z,96349.44
2022-10-22T08:03:16.063Z,96334.88
2022-10-22T08:05:44.719Z,96347.34
2022-10-22T08:08:13.264Z,96352.81
2022-10-22T08:10:42.793Z,96333.13
2022-10-22T08:13:10.758Z,96349.25
2022-10-22T08:15:38.881Z,96350.78
2022-10-22T08:18:07.296Z,96347.63
2022-10-22T08:20:35.230Z,96346.94
2022-10-22T08:23:03.195Z,96346.16
2022-10-22T08:25:31.412Z,96327.34
2022-10-22T08:28:00.743Z,96351.38
2022-10-22T08:30:29.824Z,96343.88
2022-10-22T08:32:57.785Z,96333.03
2022-10-22T08:35:25.695Z,96324.44
2022-10-22T08:37:53.630Z,96332.19
2022-10-22T08:40:25.458Z,96328.41
2022-10-22T08:43:14.966Z,96335.66
2022-10-22T08:45:47.303Z,96342.69
2022-10-22T08:48:26.157Z,96346.34
2022-10-22T08:50:55.793Z,96333.34
2022-10-22T08:53:26.836Z,96329.09
2022-10-22T08:55:55.329Z,96348.72
2022-10-22T08:58:30.877Z,96346.94
2022-10-22T09:01:01.171Z,96361.22
2022-10-22T09:03:36.321Z,96366.47
2022-10-22T09:06:10.053Z,96367.03
2022-10-22T09:08:39.422Z,96350.25
2022-10-22T09:11:21.360Z,96348.09
2022-10-22T09:13:51.408Z,96356.19
2022-10-22T09:16:20.765Z,96363.09
2022-10-22T09:18:59.863Z,96363.41
2022-10-22T09:21:31.189Z,96362.50
2022-10-22T09:24:05.382Z,96362.63
2022-10-22T09:26:36.215Z,96366.75
2022-10-22T09:29:05.924Z,96364.25
2022-10-22T09:31:34.571Z,96368.50
2022-10-22T09:34:07.450Z,96370.16
2022-10-22T09:36:36.670Z,96362.50
2022-10-22T09:39:05.281Z,96370.34
2022-10-22T09:41:33.257Z,96377.56
2022-10-22T09:44:01.169Z,96378.75
2022-10-22T09:46:31.334Z,96361.88
2022-10-22T09:49:04.793Z,96371.44
2022-10-22T09:51:39.143Z,96382.84
2022-10-22T09:54:16.377Z,96364.91
2022-10-22T09:56:49.172Z,96355.66
2022-10-22T09:59:18.029Z,96376.81
2022-10-22T10:01:47.333Z,96374.25
2022-10-22T10:04:16.680Z,96376.59
2022-10-22T10:06:45.925Z,96377.28
2022-10-22T10:09:17.880Z,96376.97
2022-10-22T10:11:50.010Z,96378.94
2022-10-22T10:14:22.866Z,96378.03
2022-10-22T10:16:58.073Z,96377.41
2022-10-22T10:19:34.674Z,96375.53
2022-10-22T10:22:08.923Z,96364.94
2022-10-22T10:24:49.778Z,96366.38
2022-10-22T10:27:27.578Z,96366.63
2022-10-22T10:30:00.878Z,96360.50
2022-10-22T10:32:48.242Z,96365.53
2022-10-22T10:35:21.663Z,96365.19
2022-10-22T10:38:02.042Z,96363.19
2022-10-22T10:40:34.618Z,96355.47
2022-10-22T10:43:08.348Z,96365.50
2022-10-22T10:45:43.850Z,96363.06
2022-10-22T10:48:38.227Z,96368.03
2022-10-22T10:51:11.929Z,96357.41
2022-10-22T10:53:52.838Z,96368.59
2022-10-22T10:56:34.414Z,96359.72
2022-10-22T10:59:13.879Z,96361.69
2022-10-22T11:01:48.470Z,96345.31
2022-10-22T11:04:44.947Z,96360.84
2022-10-22T11:07:33.559Z,96367.03
2022-10-22T11:10:04.996Z,96365.03
2022-10-22T11:12:35.571Z,96368.50
2022-10-22T11:15:09.533Z,96367.47
2022-10-22T11:17:41.724Z,96369.47
2022-10-22T11:20:17.293Z,96373.59
2022-10-22T11:23:16.964Z,96370.47
2022-10-22T11:25:40.696Z,96374.56
2022-10-22T11:30:44.808Z,96372.13
2022-10-22T11:33:16.409Z,96365.94
2022-10-22T11:35:46.589Z,96376.31
2022-10-22T11:38:17.884Z,96372.75
2022-10-22T11:40:49.453Z,96376.06
2022-10-22T11:43:29.834Z,96380.13
2022-10-22T11:46:10.662Z,96384.13
2022-10-22T11:48:39.785Z,96385.91
2022-10-22T11:51:31.625Z,96392.25
2022-10-22T11:53:59.891Z,96383.88
2022-10-22T11:56:28.785Z,96388.13
2022-10-22T11:58:56.947Z,96389.19
2022-10-22T12:01:27.543Z,96386.88
2022-10-22T12:04:16.969Z,96394.00
2022-10-22T12:06:57.909Z,96380.31
2022-10-22T12:09:26.667Z,96385.84
2022-10-22T12:11:55.457Z,96388.22
2022-10-22T12:14:26.767Z,96386.56
2022-10-22T12:16:58.335Z,96388.47
2022-10-22T12:19:28.825Z,96386.56
2022-10-22T12:22:00.218Z,96395.25
2022-10-22T12:24:31.813Z,96388.59
2022-10-22T12:26:59.712Z,96391.59
2022-10-22T12:29:28.610Z,96388.69
2022-10-22T12:31:57.697Z,96389.88
2022-10-22T12:34:26.146Z,96390.38
2022-10-22T12:36:54.836Z,96381.50
2022-10-22T12:39:27.211Z,96390.81
2022-10-22T12:41:55.858Z,96379.72
2022-10-22T12:44:23.748Z,96386.72
2022-10-22T12:46:55.977Z,96388.09
2022-10-22T12:49:36.285Z,96390.16
2022-10-22T12:52:05.193Z,96393.63
2022-10-22T12:54:35.765Z,96371.97
2022-10-22T12:57:04.065Z,96377.19
2022-10-22T12:59:35.296Z,96374.84
2022-10-22T13:02:06.768Z,96378.38
2022-10-22T13:04:38.466Z,96374.31
2022-10-22T13:07:19.852Z,96375.00
2022-10-22T13:09:59.310Z,96379.44
2022-10-22T13:12:28.837Z,96387.56
2022-10-22T13:14:56.821Z,96380.50
2022-10-22T13:17:40.713Z,96386.97
2022-10-22T13:20:19.019Z,96392.38
2022-10-22T13:23:00.258Z,96392.56
2022-10-22T13:25:31.315Z,96381.81
2022-10-22T13:28:00.677Z,96370.75
2022-10-22T13:30:30.138Z,96358.22
2022-10-22T13:32:59.593Z,96376.22
2022-10-22T13:35:29.450Z,96379.75
2022-10-22T13:37:57.329Z,96374.47
2022-10-22T13:40:25.258Z,96371.88
2022-10-22T13:42:54.610Z,96381.50
2022-10-22T13:45:22.518Z,96378.81
2022-10-22T13:47:52.216Z,96383.09
2022-10-22T13:50:21.736Z,96377.28
2022-10-22T13:52:52.078Z,96372.47
2022-10-22T13:55:21.754Z,96374.59
2022-10-22T13:57:49.781Z,96374.94
2022-10-22T14:00:20.749Z,96386.19
2022-10-22T14:02:50.366Z,96388.72
2022-10-22T14:05:19.000Z,96380.22
2022-10-22T14:07:47.036Z,96386.97
2022-10-22T14:10:16.609Z,96387.91
2022-10-22T14:12:46.484Z,96382.75
2022-10-22T14:15:20.789Z,96389.06
2022-10-22T14:17:53.388Z,96387.22
2022-10-22T14:20:23.065Z,96379.84
2022-10-22T14:22:51.875Z,96390.03
2022-10-22T14:25:21.677Z,96387.81
2022-10-22T14:27:49.944Z,96390.47
2022-10-22T14:30:22.113Z,96396.06
2022-10-22T14:32:50.113Z,96397.25
2022-10-22T14:35:20.868Z,96394.69
2022-10-22T14:37:49.051Z,96399.16
2022-10-22T14:40:18.933Z,96386.63
2022-10-22T14:42:48.729Z,96394.84
2022-10-22T14:45:21.001Z,96394.25
2022-10-22T14:47:49.376Z,96405.72
2022-10-22T14:50:17.539Z,96406.66
2022-10-22T14:52:45.970Z,96406.91
2022-10-22T14:55:16.165Z,96406.28
2022-10-22T14:57:44.730Z,96410.88
2022-10-22T15:00:14.551Z,96390.06
2022-10-22T15:02:44.249Z,96386.09
2022-10-22T15:05:12.642Z,96390.09
2022-10-22T15:07:41.076Z,96395.69
2022-10-22T15:10:10.610Z,96407.34
2022-10-22T15:12:38.459Z,96405.25
2022-10-22T15:15:09.874Z,96404.69
2022-10-22T15:17:37.765Z,96389.66
2022-10-22T15:20:08.668Z,96406.78
2022-10-22T15:22:36.625Z,96418.84
2022-10-22T15:25:06.156Z,96416.16
2022-10-22T15:27:34.158Z,96417.47
2022-10-22T15:32:32.343Z,96432.16
2022-10-22T15:35:00.317Z,96438.50
2022-10-22T15:37:30.848Z,96441.28
2022-10-22T15:40:00.537Z,96453.78
2022-10-22T15:42:28.439Z,96461.81
2022-10-22T15:44:59.061Z,96471.97
2022-10-22T15:47:29.141Z,96483.84
2022-10-22T15:49:57.020Z,96485.81
2022-10-22T15:52:24.939Z,96484.06
2022-10-22T15:54:54.383Z,96475.38
2022-10-22T15:57:22.334Z,96479.91
2022-10-22T15:59:51.910Z,96488.16
2022-10-22T16:02:19.859Z,96498.00
2022-10-22T16:04:47.963Z,96499.59
2022-10-22T16:07:15.862Z,96504.44
2022-10-22T16:09:43.753Z,96510.72
2022-10-22T16:12:15.270Z,96513.47
2022-10-22T16:14:45.297Z,96519.75
2022-10-22T16:17:13.210Z,96526.13
2022-10-22T16:19:41.094Z,96525.19
2022-10-22T16:22:11.594Z,96527.38
2022-10-22T16:24:40.437Z,96532.84
2022-10-22T16:27:08.509Z,96531.81
2022-10-22T16:29:40.186Z,96537.97
2022-10-22T16:32:08.664Z,96552.25
2022-10-22T16:34:36.558Z,96555.50
2022-10-22T16:37:10.068Z,96554.78
2022-10-22T16:39:38.849Z,96557.03
2022-10-22T16:42:06.857Z,96563.28
2022-10-22T16:44:34.850Z,96558.69
2022-10-22T16:47:04.141Z,96559.88
2022-10-22T16:49:32.059Z,96566.84
2022-10-22T16:51:59.947Z,96569.88
2022-10-22T16:54:27.913Z,96573.56
2022-10-22T16:56:55.850Z,96581.09
2022-10-22T16:59:23.762Z,96571.59
2022-10-22T17:01:51.724Z,96585.41
2022-10-22T17:04:21.842Z,96581.97
2022-10-22T17:06:49.757Z,96590.84
2022-10-22T17:09:17.738Z,96588.81
2022-10-22T17:11:45.710Z,96577.63
2022-10-22T17:14:14.781Z,96586.91
2022-10-22T17:16:43.182Z,96586.19
2022-10-22T17:19:14.172Z,96585.28
2022-10-22T17:21:43.839Z,96588.00
2022-10-22T17:24:11.758Z,96590.84
2022-10-22T17:26:39.665Z,96600.97
2022-10-22T17:29:07.938Z,96595.00
2022-10-22T17:31:37.470Z,96593.06
2022-10-22T17:34:06.427Z,96597.00
2022-10-22T17:36:36.023Z,96581.06
2022-10-22T17:39:07.755Z,96605.81
2022-10-22T17:41:37.576Z,96600.63
2022-10-22T17:44:08.982Z,96597.16
2022-10-22T17:46:37.186Z,96604.72
2022-10-22T17:49:06.944Z,96614.56
2022-10-22T17:51:34.890Z,96623.06
2022-10-22T17:54:05.925Z,96616.69
2022-10-22T17:56:40.045Z,96619.75
2022-10-22T17:59:08.264Z,96621.34
2022-10-22T18:01:40.272Z,96630.75
2022-10-22T18:04:09.512Z,96621.72
2022-10-22T18:06:37.615Z,96626.69
2022-10-22T18:09:06.851Z,96617.13
2022-10-22T18:11:36.552Z,96633.38
2022-10-22T18:14:06.135Z,96636.59
2022-10-22T18:16:34.148Z,96637.47
2022-10-22T18:19:02.156Z,96645.00
2022-10-22T18:21:31.321Z,96644.38
2022-10-22T18:24:00.195Z,96646.44
2022-10-22T18:26:28.091Z,96641.19
2022-10-22T18:28:56.209Z,96644.22
2022-10-22T18:31:26.824Z,96654.09
2022-10-22T18:33:55.737Z,96647.97
2022-10-22T18:36:26.230Z,96659.44
2022-10-22T18:38:55.540Z,96656.81
2022-10-22T18:41:23.729Z,96657.72
2022-10-22T18:43:52.038Z,96662.47
2022-10-22T18:46:20.199Z,96659.53
2022-10-22T18:48:49.511Z,96652.22
2022-10-22T18:51:17.526Z,96644.28
2022-10-22T18:53:58.927Z,96651.19
2022-10-22T18:56:33.534Z,96651.06
2022-10-22T18:59:01.406Z,96652.06
2022-10-22T19:01:30.579Z,96660.19
2022-10-22T19:03:59.912Z,96656.00
2022-10-22T19:06:34.502Z,96659.84
2022-10-22T19:09:03.945Z,96652.72
2022-10-22T19:11:32.348Z,96658.06
2022-10-22T19:14:00.206Z,96652.38
2022-10-22T19:16:28.597Z,96647.97
2022-10-22T19:19:03.204Z,96653.00
2022-10-22T19:21:31.464Z,96645.59
2022-10-22T19:24:00.232Z,96659.41
2022-10-22T19:26:29.189Z,96655.94
2022-10-22T19:28:58.245Z,96658.75
2022-10-22T19:31:26.921Z,96650.06
2022-10-22T19:33:55.649Z,96651.38
2022-10-22T19:36:27.608Z,96653.44
2022-10-22T19:38:56.098Z,96669.47
2022-10-22T19:41:25.679Z,96664.38
2022-10-22T19:43:54.665Z,96674.00
2022-10-22T19:46:23.545Z,96666.34
2022-10-22T19:48:52.407Z,96677.47
2022-10-22T19:51:22.236Z,96676.47
2022-10-22T19:53:51.566Z,96669.00
2022-10-22T19:56:21.652Z,96669.47
2022-10-22T19:58:49.568Z,96663.66
2022-10-22T20:01:19.081Z,96668.47
2022-10-22T20:03:47.475Z,96672.94
2022-10-22T20:06:16.285Z,96671.13
2022-10-22T20:08:44.501Z,96674.81
2022-10-22T20:11:18.837Z,96675.56
2022-10-22T20:13:49.720Z,96673.41
2022-10-22T20:16:22.947Z,96680.19
2022-10-22T20:18:51.265Z,96676.72
2022-10-22T20:21:20.110Z,96679.28
2022-10-22T20:23:48.825Z,96684.78
2022-10-22T20:26:18.126Z,96678.72
2022-10-22T20:28:46.050Z,96673.72
2022-10-22T20:31:16.924Z,96678.16
2022-10-22T20:33:44.833Z,96685.63
2022-10-22T20:36:15.408Z,96693.72
2022-10-22T20:38:43.509Z,96692.38
2022-10-22T20:41:13.116Z,96698.44
2022-10-22T20:43:44.655Z,96697.44
2022-10-22T20:46:16.014Z,96699.75
2022-10-22T20:48:43.886Z,96703.84
2022-10-22T20:51:11.816Z,96699.00
2022-10-22T20:53:39.729Z,96699.25
2022-10-22T20:56:08.253Z,96699.00
2022-10-22T20:58:37.220Z,96690.41
2022-10-22T21:01:10.428Z,96694.66
2022-10-22T21:03:38.620Z,96698.13
2022-10-22T21:06:07.308Z,96698.81
2022-10-22T21:08:35.408Z,96699.75
2022-10-22T21:11:03.433Z,96699.13
2022-10-22T21:13:33.059Z,96685.97
2022-10-22T21:16:01.061Z,96701.00
2022-10-22T21:18:30.376Z,96699.16
2022-10-22T21:20:58.271Z,96681.22
2022-10-22T21:23:26.273Z,96699.63
2022-10-22T21:25:55.240Z,96701.88
2022-10-22T21:28:23.193Z,96698.94
2022-10-22T21:30:51.370Z,96700.31
2022-10-22T21:33:19.445Z,96673.75
2022-10-22T21:35:53.241Z,96708.69
2022-10-22T21:38:22.244Z,96696.06
2022-10-22T21:40:50.520Z,96686.91
2022-10-22T21:43:19.037Z,96690.97
2022-10-22T21:45:47.133Z,96695.63
2022-10-22T21:48:15.701Z,96692.91
2022-10-22T21:50:44.706Z,96687.06
2022-10-22T21:53:14.000Z,96687.66
2022-10-22T21:55:42.409Z,96673.75
2022-10-22T21:58:10.310Z,96683.47
2022-10-22T22:00:38.227Z,96679.50
2022-10-22T22:03:08.064Z,96684.75
2022-10-22T22:05:35.966Z,96688.59
2022-10-22T22:08:03.842Z,96683.19
2022-10-22T22:10:33.172Z,96687.50
2022-10-22T22:13:01.150Z,96694.69
2022-10-22T22:15:31.547Z,96693.44
2022-10-22T22:17:59.421Z,96700.09
2022-10-22T22:20:27.429Z,96694.34
2022-10-22T22:22:55.421Z,96687.22
2022-10-22T22:25:23.317Z,96694.25
2022-10-22T22:27:52.602Z,96686.72
2022-10-22T22:30:20.549Z,96698.81
2022-10-22T22:32:48.423Z,96695.81
2022-10-22T22:35:16.535Z,96688.34
2022-10-22T22:37:44.575Z,96695.16
2022-10-22T22:40:13.081Z,96698.75
2022-10-22T22:42:40.968Z,96707.41
2022-10-22T22:45:10.897Z,96704.72
2022-10-22T22:47:38.922Z,96707.41
2022-10-22T22:50:08.016Z,96706.09
2022-10-22T22:52:35.899Z,96707.69
2022-10-22T22:55:06.343Z,96715.44
2022-10-22T22:57:34.271Z,96722.22
2022-10-22T23:00:02.135Z,96715.03
2022-10-22T23:02:31.446Z,96717.66
2022-10-22T23:04:59.437Z,96725.06
2022-10-22T23:07:27.353Z,96727.97
2022-10-22T23:09:55.222Z,96721.47
2022-10-22T23:12:23.120Z,96729.66
2022-10-22T23:14:51.542Z,96721.66
2022-10-22T23:17:20.095Z,96728.78
2022-10-22T23:19:49.448Z,96718.28
2022-10-22T23:22:17.354Z,96720.19
2022-10-22T23:24:45.266Z,96721.03
2022-10-22T23:27:13.181Z,96719.63
2022-10-22T23:29:41.106Z,96720.28
2022-10-22T23:32:13.347Z,96719.06
2022-10-22T23:34:41.257Z,96721.84
2022-10-22T23:37:11.038Z,96725.91
2022-10-22T23:39:38.995Z,96712.72
2022-10-22T23:42:06.925Z,96714.22
2022-10-22T23:44:34.857Z,96704.50
2022-10-22T23:47:02.738Z,96706.09
2022-10-22T23:49:30.629Z,96710.38
2022-10-22T23:51:58.488Z,96698.63
2022-10-22T23:54:27.846Z,96702.47
2022-10-22T23:56:55.717Z,96702.84
2022-10-22T23:59:23.626Z,96709.19
